sensor_id;sensor_type;location;lat;lon;timestamp;pressure;altitude;pressure_sealevel;temperature;humidity
45894;BME280;31603;51.148;16.932;2023-02-28T00:00:42;101572.63;;;0.93;100.00
45894;BME280;31603;51.148;16.932;2023-02-28T00:03:10;101577.66;;;0.86;100.00
45894;BME280;31603;51.148;16.932;2023-02-28T00:06:12;101574.25;;;0.95;100.00
45894;BME280;31603;51.148;16.932;2023-02-28T00:08:41;101574.09;;;1.10;100.00
45894;BME280;31603;51.148;16.932;2023-02-28T00:11:11;101570.56;;;0.96;100.00
45894;BME280;31603;51.148;16.932;2023-02-28T00:13:41;101573.72;;;0.90;100.00
45894;BME280;31603;51.148;16.932;2023-02-28T00:16:12;101566.75;;;0.75;100.00
45894;BME280;31603;51.148;16.932;2023-02-28T00:18:43;101582.19;;;0.86;100.00
45894;BME280;31603;51.148;16.932;2023-02-28T00:21:14;101562.38;;;0.85;100.00
45894;BME280;31603;51.148;16.932;2023-02-28T00:23:45;101577.25;;;1.04;100.00
45894;BME280;31603;51.148;16.932;2023-02-28T00:26:12;101573.09;;;1.11;100.00
45894;BME280;31603;51.148;16.932;2023-02-28T00:28:39;101570.53;;;1.09;100.00
45894;BME280;31603;51.148;16.932;2023-02-28T00:31:20;101566.59;;;0.89;100.00
45894;BME280;31603;51.148;16.932;2023-02-28T00:33:49;101566.00;;;0.97;100.00
45894;BME280;31603;51.148;16.932;2023-02-28T00:36:31;101564.66;;;0.91;100.00
45894;BME280;31603;51.148;16.932;2023-02-28T00:38:57;101558.50;;;1.01;100.00
45894;BME280;31603;51.148;16.932;2023-02-28T00:41:24;101565.97;;;1.10;100.00
45894;BME280;31603;51.148;16.932;2023-02-28T00:43:50;101564.59;;;1.39;100.00
45894;BME280;31603;51.148;16.932;2023-02-28T00:46:19;101567.91;;;1.08;100.00
45894;BME280;31603;51.148;16.932;2023-02-28T00:48:46;101556.09;;;1.09;100.00
45894;BME280;31603;51.148;16.932;2023-02-28T00:51:13;101554.53;;;0.93;100.00
45894;BME280;31603;51.148;16.932;2023-02-28T00:53:41;101558.38;;;1.61;100.00
45894;BME280;31603;51.148;16.932;2023-02-28T00:56:07;101557.72;;;1.11;100.00
45894;BME280;31603;51.148;16.932;2023-02-28T00:58:34;101549.72;;;1.10;100.00
45894;BME280;31603;51.148;16.932;2023-02-28T01:01:01;101557.06;;;1.32;100.00
45894;BME280;31603;51.148;16.932;2023-02-28T01:03:27;101559.22;;;1.51;100.00
45894;BME280;31603;51.148;16.932;2023-02-28T01:05:54;101548.66;;;1.24;100.00
45894;BME280;31603;51.148;16.932;2023-02-28T01:08:21;101557.88;;;1.21;100.00
45894;BME280;31603;51.148;16.932;2023-02-28T01:10:49;101559.72;;;0.96;100.00
45894;BME280;31603;51.148;16.932;2023-02-28T01:13:15;101560.41;;;1.11;100.00
45894;BME280;31603;51.148;16.932;2023-02-28T01:15:46;101551.09;;;0.91;100.00
45894;BME280;31603;51.148;16.932;2023-02-28T01:18:15;101546.28;;;1.19;100.00
45894;BME280;31603;51.148;16.932;2023-02-28T01:20:41;101558.50;;;1.01;100.00
45894;BME280;31603;51.148;16.932;2023-02-28T01:23:08;101557.06;;;1.08;100.00
45894;BME280;31603;51.148;16.932;2023-02-28T01:25:35;101549.97;;;1.18;100.00
45894;BME280;31603;51.148;16.932;2023-02-28T01:28:11;101553.19;;;1.23;100.00
45894;BME280;31603;51.148;16.932;2023-02-28T01:30:37;101543.16;;;1.12;100.00
45894;BME280;31603;51.148;16.932;2023-02-28T01:33:03;101550.16;;;1.04;100.00
45894;BME280;31603;51.148;16.932;2023-02-28T01:35:32;101554.41;;;1.19;100.00
45894;BME280;31603;51.148;16.932;2023-02-28T01:38:00;101554.63;;;1.16;100.00
45894;BME280;31603;51.148;16.932;2023-02-28T01:40:27;101546.25;;;1.08;100.00
45894;BME280;31603;51.148;16.932;2023-02-28T01:42:54;101554.63;;;1.16;100.00
45894;BME280;31603;51.148;16.932;2023-02-28T01:45:25;101541.72;;;1.19;100.00
45894;BME280;31603;51.148;16.932;2023-02-28T01:47:56;101546.47;;;1.05;100.00
45894;BME280;31603;51.148;16.932;2023-02-28T01:50:28;101540.91;;;1.30;100.00
45894;BME280;31603;51.148;16.932;2023-02-28T01:52:59;101533.50;;;1.21;100.00
45894;BME280;31603;51.148;16.932;2023-02-28T01:55:27;101552.66;;;1.42;100.00
45894;BME280;31603;51.148;16.932;2023-02-28T01:57:57;101551.06;;;1.15;100.00
45894;BME280;31603;51.148;16.932;2023-02-28T02:00:27;101547.81;;;1.34;100.00
45894;BME280;31603;51.148;16.932;2023-02-28T02:02:59;101545.78;;;1.14;100.00
45894;BME280;31603;51.148;16.932;2023-02-28T02:05:30;101540.91;;;1.30;100.00
45894;BME280;31603;51.148;16.932;2023-02-28T02:08:00;101544.88;;;1.37;100.00
45894;BME280;31603;51.148;16.932;2023-02-28T02:10:31;101550.53;;;1.34;100.00
45894;BME280;31603;51.148;16.932;2023-02-28T02:13:08;101544.34;;;1.21;100.00
45894;BME280;31603;51.148;16.932;2023-02-28T02:15:42;101544.69;;;1.16;100.00
45894;BME280;31603;51.148;16.932;2023-02-28T02:18:16;101543.34;;;1.22;100.00
45894;BME280;31603;51.148;16.932;2023-02-28T02:24:37;101543.88;;;1.27;100.00
45894;BME280;31603;51.148;16.932;2023-02-28T02:27:26;101547.34;;;1.40;100.00
45894;BME280;31603;51.148;16.932;2023-02-28T02:30:28;101534.50;;;1.20;100.00
45894;BME280;31603;51.148;16.932;2023-02-28T02:33:23;101536.44;;;1.18;100.00
45894;BME280;31603;51.148;16.932;2023-02-28T02:35:56;101541.09;;;1.16;100.00
45894;BME280;31603;51.148;16.932;2023-02-28T02:38:32;101532.50;;;1.22;100.00
45894;BME280;31603;51.148;16.932;2023-02-28T02:41:08;101549.38;;;1.50;100.00
45894;BME280;31603;51.148;16.932;2023-02-28T02:43:41;101543.66;;;1.41;100.00
45894;BME280;31603;51.148;16.932;2023-02-28T02:46:14;101544.91;;;1.49;100.00
45894;BME280;31603;51.148;16.932;2023-02-28T02:48:44;101541.53;;;1.34;100.00
45894;BME280;31603;51.148;16.932;2023-02-28T02:51:15;101535.25;;;1.33;100.00
45894;BME280;31603;51.148;16.932;2023-02-28T02:53:46;101545.06;;;1.23;100.00
45894;BME280;31603;51.148;16.932;2023-02-28T02:56:16;101533.22;;;1.13;100.00
45894;BME280;31603;51.148;16.932;2023-02-28T02:58:44;101532.66;;;1.32;100.00
45894;BME280;31603;51.148;16.932;2023-02-28T03:01:16;101528.13;;;1.32;100.00
45894;BME280;31603;51.148;16.932;2023-02-28T03:03:52;101537.28;;;1.54;100.00
45894;BME280;31603;51.148;16.932;2023-02-28T03:06:21;101537.47;;;1.28;100.00
45894;BME280;31603;51.148;16.932;2023-02-28T03:08:48;101539.56;;;1.01;100.00
45894;BME280;31603;51.148;16.932;2023-02-28T03:11:15;101531.97;;;1.06;100.00
45894;BME280;31603;51.148;16.932;2023-02-28T03:14:04;101542.38;;;1.34;100.00
45894;BME280;31603;51.148;16.932;2023-02-28T03:16:48;101528.97;;;1.33;100.00
45894;BME280;31603;51.148;16.932;2023-02-28T03:19:29;101542.19;;;1.49;100.00
45894;BME280;31603;51.148;16.932;2023-02-28T03:25:07;101546.06;;;1.22;100.00
45894;BME280;31603;51.148;16.932;2023-02-28T03:27:40;101537.81;;;1.24;100.00
45894;BME280;31603;51.148;16.932;2023-02-28T03:30:14;101542.84;;;1.17;100.00
45894;BME280;31603;51.148;16.932;2023-02-28T03:32:51;101540.91;;;1.30;100.00
45894;BME280;31603;51.148;16.932;2023-02-28T03:35:22;101542.72;;;1.18;100.00
45894;BME280;31603;51.148;16.932;2023-02-28T03:37:54;101548.31;;;1.28;100.00
45894;BME280;31603;51.148;16.932;2023-02-28T03:40:25;101559.78;;;1.32;100.00
45894;BME280;31603;51.148;16.932;2023-02-28T03:42:54;101554.78;;;1.14;100.00
45894;BME280;31603;51.148;16.932;2023-02-28T03:45:25;101556.03;;;1.22;100.00
45894;BME280;31603;51.148;16.932;2023-02-28T03:47:54;101564.06;;;1.34;100.00
45894;BME280;31603;51.148;16.932;2023-02-28T03:50:24;101561.84;;;1.28;100.00
45894;BME280;31603;51.148;16.932;2023-02-28T03:53:00;101555.91;;;1.23;100.00
45894;BME280;31603;51.148;16.932;2023-02-28T03:55:33;101559.19;;;1.15;100.00
45894;BME280;31603;51.148;16.932;2023-02-28T03:58:05;101553.97;;;1.25;100.00
45894;BME280;31603;51.148;16.932;2023-02-28T04:00:36;101565.16;;;1.20;100.00
45894;BME280;31603;51.148;16.932;2023-02-28T04:03:04;101563.75;;;1.39;100.00
45894;BME280;31603;51.148;16.932;2023-02-28T04:05:33;101556.88;;;1.46;100.00
45894;BME280;31603;51.148;16.932;2023-02-28T04:08:12;101562.94;;;1.61;100.00
45894;BME280;31603;51.148;16.932;2023-02-28T04:10:40;101561.44;;;1.46;100.00
45894;BME280;31603;51.148;16.932;2023-02-28T04:13:08;101556.88;;;1.46;100.00
45894;BME280;31603;51.148;16.932;2023-02-28T04:15:35;101563.38;;;1.43;100.00
45894;BME280;31603;51.148;16.932;2023-02-28T04:18:02;101557.56;;;1.37;100.00
45894;BME280;31603;51.148;16.932;2023-02-28T04:20:36;101572.34;;;1.33;100.00
45894;BME280;31603;51.148;16.932;2023-02-28T04:23:02;101568.03;;;1.41;100.00
45894;BME280;31603;51.148;16.932;2023-02-28T04:25:30;101566.66;;;1.25;100.00
45894;BME280;31603;51.148;16.932;2023-02-28T04:27:58;101578.78;;;1.19;100.00
45894;BME280;31603;51.148;16.932;2023-02-28T04:30:25;101572.53;;;1.54;100.00
45894;BME280;31603;51.148;16.932;2023-02-28T04:32:52;101575.41;;;1.28;100.00
45894;BME280;31603;51.148;16.932;2023-02-28T04:35:19;101580.81;;;1.28;100.00
45894;BME280;31603;51.148;16.932;2023-02-28T04:37:46;101582.22;;;1.45;100.00
45894;BME280;31603;51.148;16.932;2023-02-28T04:40:12;101575.16;;;1.66;100.00
45894;BME280;31603;51.148;16.932;2023-02-28T04:42:40;101569.66;;;1.90;100.00
45894;BME280;31603;51.148;16.932;2023-02-28T04:45:08;101574.16;;;1.56;100.00
45894;BME280;31603;51.148;16.932;2023-02-28T04:47:36;101582.00;;;1.48;100.00
45894;BME280;31603;51.148;16.932;2023-02-28T04:50:04;101576.94;;;1.43;100.00
45894;BME280;31603;51.148;16.932;2023-02-28T04:52:31;101574.53;;;1.63;100.00
45894;BME280;31603;51.148;16.932;2023-02-28T04:54:57;101583.13;;;1.46;100.00
45894;BME280;31603;51.148;16.932;2023-02-28T04:57:24;101572.09;;;1.36;100.00
45894;BME280;31603;51.148;16.932;2023-02-28T04:59:52;101580.03;;;1.85;100.00
45894;BME280;31603;51.148;16.932;2023-02-28T05:02:34;101583.69;;;1.38;100.00
45894;BME280;31603;51.148;16.932;2023-02-28T05:05:00;101583.97;;;1.46;100.00
45894;BME280;31603;51.148;16.932;2023-02-28T05:07:26;101582.19;;;1.34;100.00
45894;BME280;31603;51.148;16.932;2023-02-28T05:09:53;101592.06;;;1.35;100.00
45894;BME280;31603;51.148;16.932;2023-02-28T05:12:23;101584.44;;;1.40;100.00
45894;BME280;31603;51.148;16.932;2023-02-28T05:14:51;101583.19;;;1.68;100.00
45894;BME280;31603;51.148;16.932;2023-02-28T05:17:18;101588.66;;;2.02;100.00
45894;BME280;31603;51.148;16.932;2023-02-28T05:19:44;101588.44;;;1.58;100.00
45894;BME280;31603;51.148;16.932;2023-02-28T05:22:14;101596.94;;;1.54;100.00
45894;BME280;31603;51.148;16.932;2023-02-28T05:24:42;101591.31;;;1.33;100.00
45894;BME280;31603;51.148;16.932;2023-02-28T05:27:09;101591.47;;;1.42;100.00
45894;BME280;31603;51.148;16.932;2023-02-28T05:29:36;101591.63;;;1.17;100.00
45894;BME280;31603;51.148;16.932;2023-02-28T05:32:08;101592.34;;;1.19;100.00
45894;BME280;31603;51.148;16.932;2023-02-28T05:34:36;101601.00;;;1.24;100.00
45894;BME280;31603;51.148;16.932;2023-02-28T05:37:02;101594.16;;;1.31;100.00
45894;BME280;31603;51.148;16.932;2023-02-28T05:39:29;101597.41;;;1.48;100.00
45894;BME280;31603;51.148;16.932;2023-02-28T05:41:56;101594.88;;;1.68;100.00
45894;BME280;31603;51.148;16.932;2023-02-28T05:44:23;101596.66;;;1.92;100.00
45894;BME280;31603;51.148;16.932;2023-02-28T05:46:49;101606.91;;;2.00;100.00
45894;BME280;31603;51.148;16.932;2023-02-28T05:49:17;101606.91;;;2.00;100.00
45894;BME280;31603;51.148;16.932;2023-02-28T05:51:44;101611.84;;;1.59;100.00
45894;BME280;31603;51.148;16.932;2023-02-28T05:54:10;101621.94;;;1.46;100.00
45894;BME280;31603;51.148;16.932;2023-02-28T05:56:37;101605.31;;;1.51;100.00
45894;BME280;31603;51.148;16.932;2023-02-28T05:59:05;101620.44;;;1.42;100.00
45894;BME280;31603;51.148;16.932;2023-02-28T06:01:35;101624.19;;;1.28;100.00
45894;BME280;31603;51.148;16.932;2023-02-28T06:04:04;101623.59;;;1.36;100.00
45894;BME280;31603;51.148;16.932;2023-02-28T06:06:32;101619.94;;;1.48;100.00
45894;BME280;31603;51.148;16.932;2023-02-28T06:09:01;101629.78;;;1.73;100.00
45894;BME280;31603;51.148;16.932;2023-02-28T06:11:28;101638.09;;;1.59;100.00
45894;BME280;31603;51.148;16.932;2023-02-28T06:13:55;101634.44;;;1.36;100.00
45894;BME280;31603;51.148;16.932;2023-02-28T06:16:22;101637.38;;;1.57;100.00
45894;BME280;31603;51.148;16.932;2023-02-28T06:18:49;101636.88;;;1.63;100.00
45894;BME280;31603;51.148;16.932;2023-02-28T06:21:17;101641.06;;;1.56;100.00
45894;BME280;31603;51.148;16.932;2023-02-28T06:23:46;101638.91;;;1.72;100.00
45894;BME280;31603;51.148;16.932;2023-02-28T06:26:12;101648.28;;;1.68;100.00
45894;BME280;31603;51.148;16.932;2023-02-28T06:28:40;101647.50;;;1.66;100.00
45894;BME280;31603;51.148;16.932;2023-02-28T06:31:07;101653.75;;;1.90;100.00
45894;BME280;31603;51.148;16.932;2023-02-28T06:33:35;101647.91;;;1.73;100.00
45894;BME280;31603;51.148;16.932;2023-02-28T06:36:03;101667.66;;;1.75;100.00
45894;BME280;31603;51.148;16.932;2023-02-28T06:38:31;101664.00;;;1.63;100.00
45894;BME280;31603;51.148;16.932;2023-02-28T06:41:00;101649.03;;;1.81;100.00
45894;BME280;31603;51.148;16.932;2023-02-28T06:43:28;101664.88;;;1.99;100.00
45894;BME280;31603;51.148;16.932;2023-02-28T06:45:57;101665.41;;;2.04;100.00
45894;BME280;31603;51.148;16.932;2023-02-28T06:48:25;101666.16;;;2.17;100.00
45894;BME280;31603;51.148;16.932;2023-02-28T06:50:52;101668.53;;;2.22;100.00
45894;BME280;31603;51.148;16.932;2023-02-28T06:53:19;101671.34;;;2.20;100.00
45894;BME280;31603;51.148;16.932;2023-02-28T06:55:46;101674.53;;;2.14;100.00
45894;BME280;31603;51.148;16.932;2023-02-28T06:58:13;101669.63;;;2.30;100.00
45894;BME280;31603;51.148;16.932;2023-02-28T07:00:40;101670.63;;;2.29;100.00
45894;BME280;31603;51.148;16.932;2023-02-28T07:03:09;101666.19;;;2.39;100.00
45894;BME280;31603;51.148;16.932;2023-02-28T07:05:36;101667.09;;;2.62;100.00
45894;BME280;31603;51.148;16.932;2023-02-28T07:08:03;101670.66;;;2.52;100.00
45894;BME280;31603;51.148;16.932;2023-02-28T07:10:31;101678.19;;;2.48;100.00
45894;BME280;31603;51.148;16.932;2023-02-28T07:12:59;101681.75;;;2.49;100.00
45894;BME280;31603;51.148;16.932;2023-02-28T07:15:35;101677.81;;;2.75;100.00
45894;BME280;31603;51.148;16.932;2023-02-28T07:18:02;101679.91;;;2.60;100.00
45894;BME280;31603;51.148;16.932;2023-02-28T07:20:29;101677.81;;;2.75;100.00
45894;BME280;31603;51.148;16.932;2023-02-28T07:22:56;101686.06;;;2.40;100.00
45894;BME280;31603;51.148;16.932;2023-02-28T07:25:23;101672.50;;;2.40;100.00
45894;BME280;31603;51.148;16.932;2023-02-28T07:27:51;101687.69;;;2.99;100.00
45894;BME280;31603;51.148;16.932;2023-02-28T07:30:18;101682.50;;;3.50;100.00
45894;BME280;31603;51.148;16.932;2023-02-28T07:32:46;101683.22;;;2.98;87.01
45894;BME280;31603;51.148;16.932;2023-02-28T07:35:14;101688.75;;;3.30;90.69
45894;BME280;31603;51.148;16.932;2023-02-28T07:37:42;101679.22;;;4.21;85.83
45894;BME280;31603;51.148;16.932;2023-02-28T07:40:11;101692.03;;;3.45;81.11
45894;BME280;31603;51.148;16.932;2023-02-28T07:42:39;101689.59;;;3.74;82.47
45894;BME280;31603;51.148;16.932;2023-02-28T07:45:07;101692.63;;;4.13;80.86
45894;BME280;31603;51.148;16.932;2023-02-28T07:47:36;101695.28;;;4.03;79.08
45894;BME280;31603;51.148;16.932;2023-02-28T07:50:06;101696.53;;;3.99;78.43
45894;BME280;31603;51.148;16.932;2023-02-28T07:52:33;101695.56;;;3.68;80.74
45894;BME280;31603;51.148;16.932;2023-02-28T07:54:59;101693.59;;;3.91;78.50
45894;BME280;31603;51.148;16.932;2023-02-28T07:57:25;101692.72;;;4.74;77.75
45894;BME280;31603;51.148;16.932;2023-02-28T07:59:52;101695.59;;;4.72;73.95
45894;BME280;31603;51.148;16.932;2023-02-28T08:02:18;101689.50;;;4.38;73.08
45894;BME280;31603;51.148;16.932;2023-02-28T08:04:45;101690.38;;;4.39;71.81
45894;BME280;31603;51.148;16.932;2023-02-28T08:07:14;101687.59;;;4.29;71.48
45894;BME280;31603;51.148;16.932;2023-02-28T08:09:41;101686.31;;;4.54;70.29
45894;BME280;31603;51.148;16.932;2023-02-28T08:12:09;101691.81;;;4.64;67.33
45894;BME280;31603;51.148;16.932;2023-02-28T08:14:36;101693.75;;;5.13;67.55
45894;BME280;31603;51.148;16.932;2023-02-28T08:17:03;101695.19;;;5.17;66.42
45894;BME280;31603;51.148;16.932;2023-02-28T08:19:29;101701.97;;;4.92;66.30
45894;BME280;31603;51.148;16.932;2023-02-28T08:21:56;101684.00;;;5.30;65.22
45894;BME280;31603;51.148;16.932;2023-02-28T08:24:25;101699.28;;;5.62;63.31
45894;BME280;31603;51.148;16.932;2023-02-28T08:26:52;101694.13;;;5.68;63.22
45894;BME280;31603;51.148;16.932;2023-02-28T08:29:22;101695.31;;;5.85;60.02
45894;BME280;31603;51.148;16.932;2023-02-28T08:31:49;101688.59;;;5.29;60.12
45894;BME280;31603;51.148;16.932;2023-02-28T08:34:29;101690.69;;;5.57;62.11
45894;BME280;31603;51.148;16.932;2023-02-28T08:36:57;101684.91;;;5.30;61.45
45894;BME280;31603;51.148;16.932;2023-02-28T08:39:35;101678.88;;;5.46;61.14
45894;BME280;31603;51.148;16.932;2023-02-28T08:42:02;101689.53;;;6.46;60.59
45894;BME280;31603;51.148;16.932;2023-02-28T08:44:30;101687.56;;;6.29;58.91
45894;BME280;31603;51.148;16.932;2023-02-28T08:46:56;101681.81;;;6.22;58.68
45894;BME280;31603;51.148;16.932;2023-02-28T08:49:23;101691.38;;;5.59;59.24
45894;BME280;31603;51.148;16.932;2023-02-28T08:51:50;101692.75;;;6.03;58.86
45894;BME280;31603;51.148;16.932;2023-02-28T08:54:20;101692.28;;;6.37;58.05
45894;BME280;31603;51.148;16.932;2023-02-28T08:56:49;101686.06;;;6.44;56.83
45894;BME280;31603;51.148;16.932;2023-02-28T08:59:30;101680.13;;;5.92;57.36
45894;BME280;31603;51.148;16.932;2023-02-28T09:01:56;101682.69;;;6.03;56.13
45894;BME280;31603;51.148;16.932;2023-02-28T09:04:25;101694.75;;;6.77;54.45
45894;BME280;31603;51.148;16.932;2023-02-28T09:06:51;101687.19;;;7.26;53.93
45894;BME280;31603;51.148;16.932;2023-02-28T09:09:20;101686.22;;;7.45;52.73
45894;BME280;31603;51.148;16.932;2023-02-28T09:11:46;101689.19;;;7.34;52.86
45894;BME280;31603;51.148;16.932;2023-02-28T09:14:15;101696.47;;;6.78;50.25
45894;BME280;31603;51.148;16.932;2023-02-28T09:16:42;101696.00;;;6.92;52.14
45894;BME280;31603;51.148;16.932;2023-02-28T09:19:10;101687.09;;;7.63;51.68
45894;BME280;31603;51.148;16.932;2023-02-28T09:21:37;101688.44;;;7.95;50.23
45894;BME280;31603;51.148;16.932;2023-02-28T09:24:04;101689.38;;;8.22;49.50
45894;BME280;31603;51.148;16.932;2023-02-28T09:26:31;101683.72;;;8.05;50.15
45894;BME280;31603;51.148;16.932;2023-02-28T09:28:57;101676.34;;;7.07;49.85
45894;BME280;31603;51.148;16.932;2023-02-28T09:31:29;101669.00;;;7.07;50.73
45894;BME280;31603;51.148;16.932;2023-02-28T09:33:56;101677.75;;;6.83;51.10
45894;BME280;31603;51.148;16.932;2023-02-28T09:36:27;101670.72;;;6.81;50.36
45894;BME280;31603;51.148;16.932;2023-02-28T09:38:55;101678.00;;;6.90;50.69
45894;BME280;31603;51.148;16.932;2023-02-28T09:41:24;101674.16;;;7.38;50.42
45894;BME280;31603;51.148;16.932;2023-02-28T09:43:55;101674.09;;;7.65;49.83
45894;BME280;31603;51.148;16.932;2023-02-28T09:46:32;101671.69;;;7.44;48.58
45894;BME280;31603;51.148;16.932;2023-02-28T09:49:02;101666.88;;;7.01;49.91
45894;BME280;31603;51.148;16.932;2023-02-28T09:51:37;101679.63;;;6.83;49.96
45894;BME280;31603;51.148;16.932;2023-02-28T09:54:10;101677.75;;;7.38;49.74
45894;BME280;31603;51.148;16.932;2023-02-28T09:56:44;101680.75;;;8.16;47.65
45894;BME280;31603;51.148;16.932;2023-02-28T09:59:21;101678.41;;;8.22;46.62
45894;BME280;31603;51.148;16.932;2023-02-28T10:01:56;101675.97;;;8.62;47.01
45894;BME280;31603;51.148;16.932;2023-02-28T10:04:36;101677.47;;;8.57;48.71
45894;BME280;31603;51.148;16.932;2023-02-28T10:07:15;101665.81;;;7.93;47.77
45894;BME280;31603;51.148;16.932;2023-02-28T10:09:47;101685.06;;;7.83;48.70
45894;BME280;31603;51.148;16.932;2023-02-28T10:12:15;101682.94;;;8.57;47.25
45894;BME280;31603;51.148;16.932;2023-02-28T10:14:45;101691.19;;;9.17;47.19
45894;BME280;31603;51.148;16.932;2023-02-28T10:17:19;101694.41;;;9.55;45.59
45894;BME280;31603;51.148;16.932;2023-02-28T10:19:55;101684.66;;;8.32;46.19
45894;BME280;31603;51.148;16.932;2023-02-28T10:22:26;101681.47;;;8.62;47.32
45894;BME280;31603;51.148;16.932;2023-02-28T10:24:55;101680.31;;;9.50;45.65
45894;BME280;31603;51.148;16.932;2023-02-28T10:27:28;101677.06;;;8.70;45.86
45894;BME280;31603;51.148;16.932;2023-02-28T10:29:58;101668.72;;;9.88;44.82
45894;BME280;31603;51.148;16.932;2023-02-28T10:32:29;101673.94;;;9.41;43.71
45894;BME280;31603;51.148;16.932;2023-02-28T10:34:58;101674.91;;;10.07;44.79
45894;BME280;31603;51.148;16.932;2023-02-28T10:37:26;101680.38;;;9.66;43.86
45894;BME280;31603;51.148;16.932;2023-02-28T10:39:53;101667.69;;;8.80;46.08
45894;BME280;31603;51.148;16.932;2023-02-28T10:42:22;101674.06;;;10.15;44.79
45894;BME280;31603;51.148;16.932;2023-02-28T10:45:05;101669.25;;;10.08;44.80
45894;BME280;31603;51.148;16.932;2023-02-28T10:47:34;101673.38;;;10.21;43.13
45894;BME280;31603;51.148;16.932;2023-02-28T10:50:26;101661.66;;;10.59;42.69
45894;BME280;31603;51.148;16.932;2023-02-28T10:52:54;101658.53;;;10.71;43.41
45894;BME280;31603;51.148;16.932;2023-02-28T10:55:28;101663.78;;;11.36;42.19
45894;BME280;31603;51.148;16.932;2023-02-28T10:57:55;101665.28;;;10.52;42.72
45894;BME280;31603;51.148;16.932;2023-02-28T11:00:36;101660.31;;;10.23;42.55
45894;BME280;31603;51.148;16.932;2023-02-28T11:03:23;101654.88;;;10.95;41.48
45894;BME280;31603;51.148;16.932;2023-02-28T11:05:50;101657.91;;;10.60;41.88
45894;BME280;31603;51.148;16.932;2023-02-28T11:08:19;101650.94;;;10.81;42.13
45894;BME280;31603;51.148;16.932;2023-02-28T11:10:47;101651.44;;;10.84;40.78
45894;BME280;31603;51.148;16.932;2023-02-28T11:13:17;101654.13;;;10.12;42.27
45894;BME280;31603;51.148;16.932;2023-02-28T11:15:51;101649.50;;;11.01;41.60
45894;BME280;31603;51.148;16.932;2023-02-28T11:18:27;101656.97;;;11.86;39.29
45894;BME280;31603;51.148;16.932;2023-02-28T11:20:57;101650.00;;;11.44;39.20
45894;BME280;31603;51.148;16.932;2023-02-28T11:23:58;101657.78;;;11.32;39.16
45894;BME280;31603;51.148;16.932;2023-02-28T11:26:39;101650.78;;;10.82;39.41
45894;BME280;31603;51.148;16.932;2023-02-28T11:29:12;101647.72;;;12.25;37.13
45894;BME280;31603;51.148;16.932;2023-02-28T11:31:42;101655.00;;;12.85;37.24
45894;BME280;31603;51.148;16.932;2023-02-28T11:34:24;101647.28;;;12.51;36.97
45894;BME280;31603;51.148;16.932;2023-02-28T11:36:52;101653.66;;;13.11;36.78
45894;BME280;31603;51.148;16.932;2023-02-28T11:39:21;101651.94;;;12.50;38.35
45894;BME280;31603;51.148;16.932;2023-02-28T11:42:00;101652.03;;;13.46;36.84
45894;BME280;31603;51.148;16.932;2023-02-28T11:44:38;101648.34;;;12.94;37.23
45894;BME280;31603;51.148;16.932;2023-02-28T11:47:12;101648.75;;;12.24;37.08
45894;BME280;31603;51.148;16.932;2023-02-28T11:49:47;101644.44;;;12.89;36.10
45894;BME280;31603;51.148;16.932;2023-02-28T11:52:24;101650.53;;;13.29;36.80
45894;BME280;31603;51.148;16.932;2023-02-28T11:55:07;101649.22;;;13.24;36.92
45894;BME280;31603;51.148;16.932;2023-02-28T11:57:52;101626.00;;;12.22;38.54
45894;BME280;31603;51.148;16.932;2023-02-28T12:00:38;101625.41;;;12.79;37.16
45894;BME280;31603;51.148;16.932;2023-02-28T12:03:17;101626.44;;;13.22;37.41
45894;BME280;31603;51.148;16.932;2023-02-28T12:05:49;101628.72;;;13.70;36.13
45894;BME280;31603;51.148;16.932;2023-02-28T12:08:40;101625.56;;;11.95;38.59
45894;BME280;31603;51.148;16.932;2023-02-28T12:11:19;101624.72;;;13.07;37.64
45894;BME280;31603;51.148;16.932;2023-02-28T12:16:52;101617.84;;;13.32;36.75
45894;BME280;31603;51.148;16.932;2023-02-28T12:19:27;101616.06;;;13.24;38.27
45894;BME280;31603;51.148;16.932;2023-02-28T12:22:15;101602.47;;;13.81;38.25
45894;BME280;31603;51.148;16.932;2023-02-28T12:24:57;101600.34;;;12.36;40.11
45894;BME280;31603;51.148;16.932;2023-02-28T12:27:31;101606.84;;;12.43;40.14
45894;BME280;31603;51.148;16.932;2023-02-28T12:30:00;101609.97;;;12.85;39.08
45894;BME280;31603;51.148;16.932;2023-02-28T12:32:32;101596.63;;;12.29;40.46
45894;BME280;31603;51.148;16.932;2023-02-28T12:35:02;101593.44;;;10.55;40.94
45894;BME280;31603;51.148;16.932;2023-02-28T12:37:36;101593.41;;;9.24;44.58
45894;BME280;31603;51.148;16.932;2023-02-28T12:40:11;101583.69;;;9.38;44.67
45894;BME280;31603;51.148;16.932;2023-02-28T12:42:43;101574.19;;;8.65;45.73
45894;BME280;31603;51.148;16.932;2023-02-28T12:45:18;101584.19;;;10.87;42.25
45894;BME280;31603;51.148;16.932;2023-02-28T12:47:50;101573.84;;;11.97;40.52
45894;BME280;31603;51.148;16.932;2023-02-28T12:50:19;101572.25;;;11.57;40.53
45894;BME280;31603;51.148;16.932;2023-02-28T12:52:56;101573.00;;;10.41;42.88
45894;BME280;31603;51.148;16.932;2023-02-28T12:55:52;101578.63;;;12.18;40.58
45894;BME280;31603;51.148;16.932;2023-02-28T12:58:41;101581.53;;;13.35;38.28
45894;BME280;31603;51.148;16.932;2023-02-28T13:01:36;101574.00;;;12.34;39.86
45894;BME280;31603;51.148;16.932;2023-02-28T13:04:36;101553.06;;;13.99;39.40
45894;BME280;31603;51.148;16.932;2023-02-28T13:10:12;101579.66;;;14.50;36.43
45894;BME280;31603;51.148;16.932;2023-02-28T13:12:47;101575.63;;;14.03;37.13
45894;BME280;31603;51.148;16.932;2023-02-28T13:15:19;101579.34;;;12.80;37.61